sensor_id;sensor_type;location;lat;lon;timestamp;pressure;altitude;pressure_sealevel;temperature;humidity
21234;BME280;10774;42.178;26.578;2023-08-21T00:01:14;100001.78;;;22.45;62.57
21234;BME280;10774;42.178;26.578;2023-08-21T00:03:39;100000.44;;;22.33;63.24
21234;BME280;10774;42.178;26.578;2023-08-21T00:06:05;99994.97;;;22.25;63.40
21234;BME280;10774;42.178;26.578;2023-08-21T00:08:30;99982.50;;;22.30;63.23
21234;BME280;10774;42.178;26.578;2023-08-21T00:10:56;99988.66;;;22.24;63.75
21234;BME280;10774;42.178;26.578;2023-08-21T00:13:21;99983.88;;;22.10;64.21
21234;BME280;10774;42.178;26.578;2023-08-21T00:15:46;99987.50;;;22.10;64.24
21234;BME280;10774;42.178;26.578;2023-08-21T00:18:12;99982.69;;;22.21;63.98
21234;BME280;10774;42.178;26.578;2023-08-21T00:20:37;99981.13;;;22.10;64.28
21234;BME280;10774;42.178;26.578;2023-08-21T00:23:03;99986.09;;;22.06;64.48
21234;BME280;10774;42.178;26.578;2023-08-21T00:25:29;99991.56;;;22.06;64.74
21234;BME280;10774;42.178;26.578;2023-08-21T00:27:54;99993.94;;;21.85;65.60
21234;BME280;10774;42.178;26.578;2023-08-21T00:30:19;99979.91;;;21.88;66.12
21234;BME280;10774;42.178;26.578;2023-08-21T00:32:45;99979.25;;;21.86;66.25
21234;BME280;10774;42.178;26.578;2023-08-21T00:35:10;99986.25;;;21.88;66.60
21234;BME280;10774;42.178;26.578;2023-08-21T00:37:36;99993.56;;;21.88;66.57
21234;BME280;10774;42.178;26.578;2023-08-21T00:40:01;99977.88;;;21.82;66.58
21234;BME280;10774;42.178;26.578;2023-08-21T00:42:27;99980.63;;;21.90;66.59
21234;BME280;10774;42.178;26.578;2023-08-21T00:44:53;99980.63;;;21.90;66.21
21234;BME280;10774;42.178;26.578;2023-08-21T00:47:18;99988.31;;;21.95;66.87
21234;BME280;10774;42.178;26.578;2023-08-21T00:49:44;99977.53;;;22.01;66.03
21234;BME280;10774;42.178;26.578;2023-08-21T00:52:12;99986.06;;;21.74;68.59
21234;BME280;10774;42.178;26.578;2023-08-21T00:54:38;99977.88;;;21.82;71.84
21234;BME280;10774;42.178;26.578;2023-08-21T00:57:04;99977.53;;;21.77;73.73
21234;BME280;10774;42.178;26.578;2023-08-21T00:59:30;99976.09;;;21.40;77.51
21234;BME280;10774;42.178;26.578;2023-08-21T01:01:55;99989.16;;;20.78;85.43
21234;BME280;10774;42.178;26.578;2023-08-21T01:04:21;99982.50;;;21.14;83.95
21234;BME280;10774;42.178;26.578;2023-08-21T01:06:51;99987.28;;;21.29;83.55
21234;BME280;10774;42.178;26.578;2023-08-21T01:12:06;99983.88;;;21.27;83.75
21234;BME280;10774;42.178;26.578;2023-08-21T01:14:43;99996.16;;;21.14;84.20
21234;BME280;10774;42.178;26.578;2023-08-21T01:17:16;99997.44;;;21.02;83.65
21234;BME280;10774;42.178;26.578;2023-08-21T01:19:48;99988.72;;;20.38;87.17
21234;BME280;10774;42.178;26.578;2023-08-21T01:22:14;99992.38;;;20.47;88.08
21234;BME280;10774;42.178;26.578;2023-08-21T01:24:39;99994.63;;;20.78;85.99
21234;BME280;10774;42.178;26.578;2023-08-21T01:27:05;99981.88;;;20.60;85.97
21234;BME280;10774;42.178;26.578;2023-08-21T01:29:31;100001.06;;;20.77;85.58
21234;BME280;10774;42.178;26.578;2023-08-21T01:34:41;99986.38;;;20.70;87.46
21234;BME280;10774;42.178;26.578;2023-08-21T01:37:08;99998.34;;;20.77;87.30
21234;BME280;10774;42.178;26.578;2023-08-21T01:39:33;99992.31;;;20.99;85.20
21234;BME280;10774;42.178;26.578;2023-08-21T01:41:59;99986.81;;;20.83;85.18
21234;BME280;10774;42.178;26.578;2023-08-21T01:44:24;99987.78;;;20.74;84.90
21234;BME280;10774;42.178;26.578;2023-08-21T01:46:52;100000.28;;;20.84;81.11
21234;BME280;10774;42.178;26.578;2023-08-21T01:49:17;99984.13;;;20.99;78.14
21234;BME280;10774;42.178;26.578;2023-08-21T01:51:44;99989.00;;;20.87;77.45
21234;BME280;10774;42.178;26.578;2023-08-21T01:54:09;99984.94;;;20.83;77.10
21234;BME280;10774;42.178;26.578;2023-08-21T01:56:35;99993.53;;;21.05;75.09
21234;BME280;10774;42.178;26.578;2023-08-21T01:59:01;99999.81;;;20.97;75.51
21234;BME280;10774;42.178;26.578;2023-08-21T02:01:27;99989.03;;;20.61;76.92
21234;BME280;10774;42.178;26.578;2023-08-21T02:03:52;99994.47;;;20.53;78.14
21234;BME280;10774;42.178;26.578;2023-08-21T02:06:18;99997.19;;;20.53;77.59
21234;BME280;10774;42.178;26.578;2023-08-21T02:08:43;100002.34;;;20.56;77.64
21234;BME280;10774;42.178;26.578;2023-08-21T02:11:09;99986.28;;;20.53;77.61
21234;BME280;10774;42.178;26.578;2023-08-21T02:13:34;99971.03;;;20.43;77.63
21234;BME280;10774;42.178;26.578;2023-08-21T02:16:00;99989.66;;;20.47;77.48
21234;BME280;10774;42.178;26.578;2023-08-21T02:18:25;100000.97;;;20.60;77.29
21234;BME280;10774;42.178;26.578;2023-08-21T02:20:50;99984.31;;;20.63;76.57
21234;BME280;10774;42.178;26.578;2023-08-21T02:23:16;100003.19;;;20.57;76.64
21234;BME280;10774;42.178;26.578;2023-08-21T02:25:41;99982.59;;;20.62;76.02
21234;BME280;10774;42.178;26.578;2023-08-21T02:28:07;99997.56;;;20.58;75.39
21234;BME280;10774;42.178;26.578;2023-08-21T02:30:33;100011.50;;;20.55;77.11
21234;BME280;10774;42.178;26.578;2023-08-21T02:32:58;100007.63;;;20.58;76.95
21234;BME280;10774;42.178;26.578;2023-08-21T02:35:24;99995.88;;;20.40;77.85
21234;BME280;10774;42.178;26.578;2023-08-21T02:37:49;100005.69;;;20.50;78.65
21234;BME280;10774;42.178;26.578;2023-08-21T02:40:15;100001.00;;;20.17;80.77
21234;BME280;10774;42.178;26.578;2023-08-21T02:42:41;100004.78;;;20.24;80.61
21234;BME280;10774;42.178;26.578;2023-08-21T02:45:07;99998.94;;;20.19;79.89
21234;BME280;10774;42.178;26.578;2023-08-21T02:47:37;99991.16;;;20.24;78.98
21234;BME280;10774;42.178;26.578;2023-08-21T02:50:06;100011.59;;;20.20;79.47
21234;BME280;10774;42.178;26.578;2023-08-21T02:52:33;100009.38;;;20.23;78.88
21234;BME280;10774;42.178;26.578;2023-08-21T02:54:59;100005.34;;;20.27;78.11
21234;BME280;10774;42.178;26.578;2023-08-21T02:57:26;100008.91;;;20.28;78.38
21234;BME280;10774;42.178;26.578;2023-08-21T02:59:52;100005.38;;;20.09;79.68
21234;BME280;10774;42.178;26.578;2023-08-21T03:02:18;100003.97;;;20.05;79.78
21234;BME280;10774;42.178;26.578;2023-08-21T03:04:43;99995.84;;;20.14;80.26
21234;BME280;10774;42.178;26.578;2023-08-21T03:07:09;99988.81;;;20.29;78.93
21234;BME280;10774;42.178;26.578;2023-08-21T03:09:36;99984.50;;;20.00;79.94
21234;BME280;10774;42.178;26.578;2023-08-21T03:12:02;99994.91;;;20.23;79.39
21234;BME280;10774;42.178;26.578;2023-08-21T03:14:28;100002.88;;;20.42;78.27
21234;BME280;10774;42.178;26.578;2023-08-21T03:16:53;100006.66;;;20.23;78.97
21234;BME280;10774;42.178;26.578;2023-08-21T03:19:19;100013.75;;;19.98;80.82
21234;BME280;10774;42.178;26.578;2023-08-21T03:21:44;100014.38;;;19.56;82.18
21234;BME280;10774;42.178;26.578;2023-08-21T03:24:09;100010.06;;;19.36;84.73
21234;BME280;10774;42.178;26.578;2023-08-21T03:26:35;100019.69;;;19.76;82.96
21234;BME280;10774;42.178;26.578;2023-08-21T03:29:01;100020.25;;;19.62;83.61
21234;BME280;10774;42.178;26.578;2023-08-21T03:31:26;100015.47;;;19.46;86.63
21234;BME280;10774;42.178;26.578;2023-08-21T03:33:52;100026.06;;;19.67;85.09
21234;BME280;10774;42.178;26.578;2023-08-21T03:36:17;100030.81;;;19.82;87.95
21234;BME280;10774;42.178;26.578;2023-08-21T03:38:44;100030.72;;;19.56;91.46
21234;BME280;10774;42.178;26.578;2023-08-21T03:41:09;100029.69;;;18.09;100.00
21234;BME280;10774;42.178;26.578;2023-08-21T03:43:35;100017.50;;;18.03;100.00
21234;BME280;10774;42.178;26.578;2023-08-21T03:46:00;100016.91;;;18.19;100.00
21234;BME280;10774;42.178;26.578;2023-08-21T03:48:26;100020.69;;;17.98;100.00
21234;BME280;10774;42.178;26.578;2023-08-21T03:50:51;100030.88;;;18.53;100.00
21234;BME280;10774;42.178;26.578;2023-08-21T03:53:17;100024.19;;;18.94;100.00
21234;BME280;10774;42.178;26.578;2023-08-21T03:55:43;100029.75;;;19.30;100.00
21234;BME280;10774;42.178;26.578;2023-08-21T03:58:08;100020.84;;;19.28;97.64
21234;BME280;10774;42.178;26.578;2023-08-21T04:00:34;100024.47;;;19.46;94.16
21234;BME280;10774;42.178;26.578;2023-08-21T04:02:59;100036.28;;;19.65;92.00
21234;BME280;10774;42.178;26.578;2023-08-21T04:05:25;100024.28;;;19.02;91.81
21234;BME280;10774;42.178;26.578;2023-08-21T04:07:50;100037.13;;;19.38;92.30
21234;BME280;10774;42.178;26.578;2023-08-21T04:10:15;100035.38;;;19.46;89.13
21234;BME280;10774;42.178;26.578;2023-08-21T04:12:42;100041.03;;;19.63;88.88
21234;BME280;10774;42.178;26.578;2023-08-21T04:15:08;100024.88;;;19.24;88.60
21234;BME280;10774;42.178;26.578;2023-08-21T04:17:33;100030.13;;;19.80;87.10
21234;BME280;10774;42.178;26.578;2023-08-21T04:19:59;100044.97;;;20.22;85.13
21234;BME280;10774;42.178;26.578;2023-08-21T04:22:24;100045.00;;;20.04;85.95
21234;BME280;10774;42.178;26.578;2023-08-21T04:24:49;100040.78;;;20.27;86.34
21234;BME280;10774;42.178;26.578;2023-08-21T04:27:15;100032.53;;;20.45;84.43
21234;BME280;10774;42.178;26.578;2023-08-21T04:29:40;100042.34;;;20.56;83.17
21234;BME280;10774;42.178;26.578;2023-08-21T04:32:06;100028.34;;;20.51;82.31
21234;BME280;10774;42.178;26.578;2023-08-21T04:34:34;100033.56;;;20.88;79.34
21234;BME280;10774;42.178;26.578;2023-08-21T04:37:00;100036.22;;;20.80;79.15
21234;BME280;10774;42.178;26.578;2023-08-21T04:39:26;100037.81;;;20.65;80.85
21234;BME280;10774;42.178;26.578;2023-08-21T04:41:51;100043.38;;;20.81;79.38
21234;BME280;10774;42.178;26.578;2023-08-21T04:44:17;100041.53;;;21.15;78.41
21234;BME280;10774;42.178;26.578;2023-08-21T04:46:43;100030.59;;;21.15;77.62
21234;BME280;10774;42.178;26.578;2023-08-21T04:49:08;100043.97;;;21.27;77.51
21234;BME280;10774;42.178;26.578;2023-08-21T04:51:34;100038.22;;;21.38;76.85
21234;BME280;10774;42.178;26.578;2023-08-21T04:53:59;100038.94;;;21.48;76.57
21234;BME280;10774;42.178;26.578;2023-08-21T04:56:25;100044.97;;;21.76;75.33
21234;BME280;10774;42.178;26.578;2023-08-21T04:58:52;100033.91;;;21.86;74.81
21234;BME280;10774;42.178;26.578;2023-08-21T05:01:17;100034.44;;;21.89;73.43
21234;BME280;10774;42.178;26.578;2023-08-21T05:03:43;100031.88;;;21.96;72.44
21234;BME280;10774;42.178;26.578;2023-08-21T05:06:08;100038.03;;;22.14;71.71
21234;BME280;10774;42.178;26.578;2023-08-21T05:08:34;100042.34;;;22.17;71.39
21234;BME280;10774;42.178;26.578;2023-08-21T05:11:00;100042.66;;;22.30;71.01
21234;BME280;10774;42.178;26.578;2023-08-21T05:13:26;100033.59;;;22.46;70.39
21234;BME280;10774;42.178;26.578;2023-08-21T05:15:55;100040.06;;;22.61;69.38
21234;BME280;10774;42.178;26.578;2023-08-21T05:18:22;100041.47;;;22.57;69.70
21234;BME280;10774;42.178;26.578;2023-08-21T05:20:48;100031.50;;;22.89;68.29
21234;BME280;10774;42.178;26.578;2023-08-21T05:23:14;100039.84;;;22.87;67.76
21234;BME280;10774;42.178;26.578;2023-08-21T05:25:40;100038.44;;;23.16;66.05
21234;BME280;10774;42.178;26.578;2023-08-21T05:28:06;100039.59;;;23.21;65.79
21234;BME280;10774;42.178;26.578;2023-08-21T05:30:32;100040.19;;;23.40;65.15
21234;BME280;10774;42.178;26.578;2023-08-21T05:32:57;100046.53;;;23.80;67.46
21234;BME280;10774;42.178;26.578;2023-08-21T05:35:23;100050.66;;;24.21;65.90
21234;BME280;10774;42.178;26.578;2023-08-21T05:37:48;100047.72;;;24.46;65.41
21234;BME280;10774;42.178;26.578;2023-08-21T05:40:14;100051.03;;;24.18;64.32
21234;BME280;10774;42.178;26.578;2023-08-21T05:42:39;100044.44;;;24.27;66.05
21234;BME280;10774;42.178;26.578;2023-08-21T05:45:05;100052.25;;;24.39;66.42
21234;BME280;10774;42.178;26.578;2023-08-21T05:47:31;100046.59;;;24.17;65.93
21234;BME280;10774;42.178;26.578;2023-08-21T05:49:57;100044.19;;;24.14;65.79
21234;BME280;10774;42.178;26.578;2023-08-21T05:52:22;100058.72;;;24.46;65.41
21234;BME280;10774;42.178;26.578;2023-08-21T05:54:48;100045.03;;;24.61;67.48
21234;BME280;10774;42.178;26.578;2023-08-21T05:57:13;100050.53;;;24.75;64.66
21234;BME280;10774;42.178;26.578;2023-08-21T05:59:46;100047.13;;;24.88;64.64
21234;BME280;10774;42.178;26.578;2023-08-21T06:02:13;100054.28;;;25.12;62.81
21234;BME280;10774;42.178;26.578;2023-08-21T06:04:40;100045.94;;;25.20;61.78
21234;BME280;10774;42.178;26.578;2023-08-21T06:07:06;100047.47;;;25.38;61.43
21234;BME280;10774;42.178;26.578;2023-08-21T06:09:32;100049.72;;;25.49;59.98
21234;BME280;10774;42.178;26.578;2023-08-21T06:11:59;100058.97;;;25.63;59.26
21234;BME280;10774;42.178;26.578;2023-08-21T06:14:26;100055.34;;;25.77;58.98
21234;BME280;10774;42.178;26.578;2023-08-21T06:17:02;100059.91;;;25.85;56.64
21234;BME280;10774;42.178;26.578;2023-08-21T06:19:28;100059.91;;;25.85;55.71
21234;BME280;10774;42.178;26.578;2023-08-21T06:21:57;100071.03;;;25.98;54.20
21234;BME280;10774;42.178;26.578;2023-08-21T06:24:23;100064.03;;;26.17;54.77
21234;BME280;10774;42.178;26.578;2023-08-21T06:26:50;100060.97;;;26.26;53.92
21234;BME280;10774;42.178;26.578;2023-08-21T06:29:16;100075.38;;;26.50;54.14
21234;BME280;10774;42.178;26.578;2023-08-21T06:31:42;100075.06;;;26.59;53.24
21234;BME280;10774;42.178;26.578;2023-08-21T06:34:08;100064.34;;;26.71;52.07
21234;BME280;10774;42.178;26.578;2023-08-21T06:36:33;100069.28;;;26.82;51.91
21234;BME280;10774;42.178;26.578;2023-08-21T06:38:58;100063.38;;;26.85;51.29
21234;BME280;10774;42.178;26.578;2023-08-21T06:41:24;100068.78;;;27.00;50.13
21234;BME280;10774;42.178;26.578;2023-08-21T06:43:50;100072.28;;;26.88;50.67
21234;BME280;10774;42.178;26.578;2023-08-21T06:46:16;100068.38;;;27.03;50.34
21234;BME280;10774;42.178;26.578;2023-08-21T06:48:42;100069.50;;;27.09;48.99
21234;BME280;10774;42.178;26.578;2023-08-21T06:51:07;100066.56;;;27.10;48.77
21234;BME280;10774;42.178;26.578;2023-08-21T06:53:33;100065.31;;;27.20;49.16
21234;BME280;10774;42.178;26.578;2023-08-21T06:55:59;100080.28;;;27.39;48.99
21234;BME280;10774;42.178;26.578;2023-08-21T06:58:24;100075.25;;;27.49;48.99
21234;BME280;10774;42.178;26.578;2023-08-21T07:00:50;100069.72;;;27.49;47.98
21234;BME280;10774;42.178;26.578;2023-08-21T07:03:15;100062.53;;;27.48;47.66
21234;BME280;10774;42.178;26.578;2023-08-21T07:05:41;100063.78;;;27.52;48.37
21234;BME280;10774;42.178;26.578;2023-08-21T07:08:06;100070.09;;;27.80;47.66
21234;BME280;10774;42.178;26.578;2023-08-21T07:10:36;100062.22;;;27.77;49.29
21234;BME280;10774;42.178;26.578;2023-08-21T07:13:02;100058.84;;;27.82;48.37
21234;BME280;10774;42.178;26.578;2023-08-21T07:15:29;100071.78;;;27.81;48.79
21234;BME280;10774;42.178;26.578;2023-08-21T07:17:54;100052.94;;;27.44;49.15
21234;BME280;10774;42.178;26.578;2023-08-21T07:20:21;100061.53;;;27.69;48.68
21234;BME280;10774;42.178;26.578;2023-08-21T07:22:46;100060.88;;;27.67;48.26
21234;BME280;10774;42.178;26.578;2023-08-21T07:25:12;100050.53;;;27.27;48.64
21234;BME280;10774;42.178;26.578;2023-08-21T07:27:38;100049.63;;;27.61;48.98
21234;BME280;10774;42.178;26.578;2023-08-21T07:30:03;100057.81;;;27.90;49.66
21234;BME280;10774;42.178;26.578;2023-08-21T07:32:30;100055.50;;;28.00;49.50
21234;BME280;10774;42.178;26.578;2023-08-21T07:34:55;100046.22;;;28.27;48.25
21234;BME280;10774;42.178;26.578;2023-08-21T07:37:21;100056.66;;;28.45;46.14
21234;BME280;10774;42.178;26.578;2023-08-21T07:39:46;100056.88;;;28.63;46.50
21234;BME280;10774;42.178;26.578;2023-08-21T07:42:12;100052.78;;;28.92;46.24
21234;BME280;10774;42.178;26.578;2023-08-21T07:44:39;100058.56;;;28.98;46.23
21234;BME280;10774;42.178;26.578;2023-08-21T07:47:04;100044.28;;;29.14;46.72
21234;BME280;10774;42.178;26.578;2023-08-21T07:49:31;100029.75;;;29.38;45.68
21234;BME280;10774;42.178;26.578;2023-08-21T07:51:56;100035.59;;;29.04;46.18
21234;BME280;10774;42.178;26.578;2023-08-21T07:54:22;100039.03;;;28.79;46.00
21234;BME280;10774;42.178;26.578;2023-08-21T07:56:47;100039.41;;;29.16;46.00
21234;BME280;10774;42.178;26.578;2023-08-21T07:59:13;100031.38;;;29.53;44.73
21234;BME280;10774;42.178;26.578;2023-08-21T08:01:38;100024.38;;;29.57;45.29
21234;BME280;10774;42.178;26.578;2023-08-21T08:04:04;100026.97;;;29.90;44.64
21234;BME280;10774;42.178;26.578;2023-08-21T08:06:31;100021.28;;;30.10;44.30
21234;BME280;10774;42.178;26.578;2023-08-21T08:08:56;100025.25;;;30.27;43.27
21234;BME280;10774;42.178;26.578;2023-08-21T08:11:21;100025.06;;;30.47;43.18
21234;BME280;10774;42.178;26.578;2023-08-21T08:13:47;100014.50;;;30.62;42.69
21234;BME280;10774;42.178;26.578;2023-08-21T08:16:12;100021.56;;;30.83;42.20
21234;BME280;10774;42.178;26.578;2023-08-21T08:18:38;100007.59;;;30.96;42.67
21234;BME280;10774;42.178;26.578;2023-08-21T08:21:03;99998.31;;;31.21;41.52
21234;BME280;10774;42.178;26.578;2023-08-21T08:23:29;100003.91;;;31.39;41.20
21234;BME280;10774;42.178;26.578;2023-08-21T08:25:54;100018.31;;;31.30;41.06
21234;BME280;10774;42.178;26.578;2023-08-21T08:28:19;100002.38;;;31.43;41.24
21234;BME280;10774;42.178;26.578;2023-08-21T08:30:45;100007.81;;;31.50;41.08
21234;BME280;10774;42.178;26.578;2023-08-21T08:33:11;99991.81;;;31.64;41.16
21234;BME280;10774;42.178;26.578;2023-08-21T08:35:36;99998.09;;;31.89;40.76
21234;BME280;10774;42.178;26.578;2023-08-21T08:38:02;99993.94;;;32.10;40.98
21234;BME280;10774;42.178;26.578;2023-08-21T08:40:28;99985.88;;;32.20;39.67
21234;BME280;10774;42.178;26.578;2023-08-21T08:42:53;99988.91;;;32.19;38.88
21234;BME280;10774;42.178;26.578;2023-08-21T08:45:28;99976.38;;;32.28;38.70
21234;BME280;10774;42.178;26.578;2023-08-21T08:47:57;99993.66;;;32.42;39.72
21234;BME280;10774;42.178;26.578;2023-08-21T08:50:24;99976.91;;;32.48;39.05
21234;BME280;10774;42.178;26.578;2023-08-21T08:52:50;99978.97;;;32.65;38.79
21234;BME280;10774;42.178;26.578;2023-08-21T08:55:15;99974.22;;;32.77;39.26
21234;BME280;10774;42.178;26.578;2023-08-21T08:57:40;99967.09;;;32.93;39.34
21234;BME280;10774;42.178;26.578;2023-08-21T09:00:06;99963.41;;;33.16;39.57
21234;BME280;10774;42.178;26.578;2023-08-21T09:02:32;99961.06;;;33.36;38.55
21234;BME280;10774;42.178;26.578;2023-08-21T09:04:57;99955.00;;;33.51;37.76
21234;BME280;10774;42.178;26.578;2023-08-21T09:07:25;99937.31;;;33.74;37.47
21234;BME280;10774;42.178;26.578;2023-08-21T09:09:50;99951.16;;;33.97;35.33
21234;BME280;10774;42.178;26.578;2023-08-21T09:12:18;99946.44;;;34.15;35.78
21234;BME280;10774;42.178;26.578;2023-08-21T09:14:45;99949.47;;;34.30;34.63
21234;BME280;10774;42.178;26.578;2023-08-21T09:17:11;99942.59;;;34.49;35.19
21234;BME280;10774;42.178;26.578;2023-08-21T09:19:37;99942.22;;;34.63;31.91
21234;BME280;10774;42.178;26.578;2023-08-21T09:22:11;99931.06;;;34.63;29.87
21234;BME280;10774;42.178;26.578;2023-08-21T09:24:41;99933.53;;;34.98;29.82
21234;BME280;10774;42.178;26.578;2023-08-21T09:27:24;99922.63;;;35.18;28.65
21234;BME280;10774;42.178;26.578;2023-08-21T09:29:49;99929.69;;;35.26;27.82
21234;BME280;10774;42.178;26.578;2023-08-21T09:32:15;99932.03;;;35.34;27.57
21234;BME280;10774;42.178;26.578;2023-08-21T09:34:41;99923.59;;;35.29;27.33
21234;BME280;10774;42.178;26.578;2023-08-21T09:37:07;99923.56;;;34.85;27.77
21234;BME280;10774;42.178;26.578;2023-08-21T09:39:34;99917.63;;;34.98;28.42
21234;BME280;10774;42.178;26.578;2023-08-21T09:42:01;99916.38;;;35.33;26.40
21234;BME280;10774;42.178;26.578;2023-08-21T09:44:27;99926.34;;;35.46;26.70
21234;BME280;10774;42.178;26.578;2023-08-21T09:46:52;99915.03;;;35.14;26.86
21234;BME280;10774;42.178;26.578;2023-08-21T09:49:19;99906.66;;;35.14;27.44
21234;BME280;10774;42.178;26.578;2023-08-21T09:51:46;99910.69;;;35.45;27.38
21234;BME280;10774;42.178;26.578;2023-08-21T09:54:12;99910.25;;;35.58;26.58
21234;BME280;10774;42.178;26.578;2023-08-21T09:56:38;99915.31;;;35.88;26.50
21234;BME280;10774;42.178;26.578;2023-08-21T09:59:05;99916.66;;;36.12;26.39
21234;BME280;10774;42.178;26.578;2023-08-21T10:01:33;99918.97;;;36.21;25.42
21234;BME280;10774;42.178;26.578;2023-08-21T10:04:01;99902.38;;;36.41;25.76
21234;BME280;10774;42.178;26.578;2023-08-21T10:06:28;99903.84;;;36.54;26.01
21234;BME280;10774;42.178;26.578;2023-08-21T10:08:56;99895.75;;;36.57;25.86
21234;BME280;10774;42.178;26.578;2023-08-21T10:11:22;99893.16;;;36.46;25.38
21234;BME280;10774;42.178;26.578;2023-08-21T10:13:48;99895.56;;;36.32;25.39
21234;BME280;10774;42.178;26.578;2023-08-21T10:16:16;99900.22;;;36.58;24.73
21234;BME280;10774;42.178;26.578;2023-08-21T10:18:44;99901.13;;;36.69;24.81
21234;BME280;10774;42.178;26.578;2023-08-21T10:23:51;99888.13;;;36.90;25.45
21234;BME280;10774;42.178;26.578;2023-08-21T10:26:21;99899.84;;;36.87;24.24
21234;BME280;10774;42.178;26.578;2023-08-21T10:31:36;99891.06;;;36.31;25.46
21234;BME280;10774;42.178;26.578;2023-08-21T10:34:09;99879.53;;;36.54;25.07
21234;BME280;10774;42.178;26.578;2023-08-21T10:39:20;99884.91;;;37.29;25.18
21234;BME280;10774;42.178;26.578;2023-08-21T10:41:55;99879.28;;;37.24;24.47
21234;BME280;10774;42.178;26.578;2023-08-21T10:49:54;99871.56;;;37.72;23.68
21234;BME280;10774;42.178;26.578;2023-08-21T10:54:54;99880.38;;;36.18;24.42
21234;BME280;10774;42.178;26.578;2023-08-21T10:57:22;99865.91;;;35.61;25.23
21234;BME280;10774;42.178;26.578;2023-08-21T10:59:58;99879.72;;;35.78;25.74
21234;BME280;10774;42.178;26.578;2023-08-21T11:02:25;99872.09;;;36.38;25.77
21234;BME280;10774;42.178;26.578;2023-08-21T11:04:52;99861.97;;;36.69;25.79
21234;BME280;10774;42.178;26.578;2023-08-21T11:07:18;99861.63;;;37.08;24.92
21234;BME280;10774;42.178;26.578;2023-08-21T11:09:43;99875.94;;;36.64;24.83
21234;BME280;10774;42.178;26.578;2023-08-21T11:12:12;99862.22;;;36.62;25.52
21234;BME280;10774;42.178;26.578;2023-08-21T11:14:38;99866.19;;;36.29;25.33
21234;BME280;10774;42.178;26.578;2023-08-21T11:17:04;99876.72;;;36.17;25.41
21234;BME280;10774;42.178;26.578;2023-08-21T11:19:31;99858.72;;;35.71;25.99
21234;BME280;10774;42.178;26.578;2023-08-21T11:21:57;99878.84;;;35.73;25.54
21234;BME280;10774;42.178;26.578;2023-08-21T11:24:50;99872.16;;;35.74;25.56
21234;BME280;10774;42.178;26.578;2023-08-21T11:27:17;99865.09;;;36.30;25.11
21234;BME280;10774;42.178;26.578;2023-08-21T11:29:48;99848.88;;;36.85;25.23
21234;BME280;10774;42.178;26.578;2023-08-21T11:32:22;99853.25;;;37.33;24.19
21234;BME280;10774;42.178;26.578;2023-08-21T11:34:49;99856.22;;;36.91;23.75
21234;BME280;10774;42.178;26.578;2023-08-21T11:37:17;99854.38;;;36.54;24.06
21234;BME280;10774;42.178;26.578;2023-08-21T11:42:13;99854.00;;;36.93;23.82
21234;BME280;10774;42.178;26.578;2023-08-21T11:44:50;99855.84;;;37.45;24.10
21234;BME280;10774;42.178;26.578;2023-08-21T11:47:18;99858.03;;;37.33;23.23
21234;BME280;10774;42.178;26.578;2023-08-21T11:49:45;99856.44;;;37.62;22.85
21234;BME280;10774;42.178;26.578;2023-08-21T11:52:13;99839.66;;;37.93;23.25
21234;BME280;10774;42.178;26.578;2023-08-21T11:54:40;99854.75;;;38.33;22.33
21234;BME280;10774;42.178;26.578;2023-08-21T11:57:12;99855.22;;;38.76;22.05
21234;BME280;10774;42.178;26.578;2023-08-21T11:59:38;99842.28;;;38.80;21.75
21234;BME280;10774;42.178;26.578;2023-08-21T12:02:18;99842.28;;;38.80;21.97
21234;BME280;10774;42.178;26.578;2023-08-21T12:04:44;99841.19;;;38.76;21.40
21234;BME280;10774;42.178;26.578;2023-08-21T12:07:10;99841.03;;;39.06;21.84
21234;BME280;10774;42.178;26.578;2023-08-21T12:09:37;99847.75;;;38.25;21.42
21234;BME280;10774;42.178;26.578;2023-08-21T12:12:03;99845.47;;;38.27;22.76
21234;BME280;10774;42.178;26.578;2023-08-21T12:14:28;99841.28;;;37.63;23.26
21234;BME280;10774;42.178;26.578;2023-08-21T12:16:54;99839.63;;;37.73;22.75
21234;BME280;10774;42.178;26.578;2023-08-21T12:19:22;99849.19;;;38.02;22.27
21234;BME280;10774;42.178;26.578;2023-08-21T12:21:48;99850.00;;;38.13;22.21
21234;BME280;10774;42.178;26.578;2023-08-21T12:24:14;99848.53;;;38.56;22.19
21234;BME280;10774;42.178;26.578;2023-08-21T12:26:39;99842.88;;;39.31;22.37
21234;BME280;10774;42.178;26.578;2023-08-21T12:29:05;99846.34;;;39.62;21.14
21234;BME280;10774;42.178;26.578;2023-08-21T12:31:32;99840.56;;;39.83;21.97
21234;BME280;10774;42.178;26.578;2023-08-21T12:33:57;99835.13;;;39.57;21.18
21234;BME280;10774;42.178;26.578;2023-08-21T12:36:23;99836.41;;;39.75;21.13
21234;BME280;10774;42.178;26.578;2023-08-21T12:38:49;99843.84;;;39.56;21.36
21234;BME280;10774;42.178;26.578;2023-08-21T12:41:14;99833.06;;;39.73;20.80
21234;BME280;10774;42.178;26.578;2023-08-21T12:43:39;99836.25;;;39.56;21.16
21234;BME280;10774;42.178;26.578;2023-08-21T12:46:05;99837.59;;;39.25;21.76
21234;BME280;10774;42.178;26.578;2023-08-21T12:48:30;99845.41;;;39.77;20.94
21234;BME280;10774;42.178;26.578;2023-08-21T12:50:56;99840.19;;;40.23;20.73
21234;BME280;10774;42.178;26.578;2023-08-21T12:53:21;99835.00;;;40.36;20.49
21234;BME280;10774;42.178;26.578;2023-08-21T12:55:48;99837.56;;;40.32;20.46
21234;BME280;10774;42.178;26.578;2023-08-21T12:58:14;99830.22;;;40.36;20.69
21234;BME280;10774;42.178;26.578;2023-08-21T13:00:40;99833.66;;;40.57;20.65
21234;BME280;10774;42.178;26.578;2023-08-21T13:03:05;99830.88;;;40.28;20.24
21234;BME280;10774;42.178;26.578;2023-08-21T13:05:31;99829.06;;;40.66;20.54